• pl
  • eng

Awiacja
WIADOMOŚCI
ostatnia aktualizacja: 08.05.2017 13:35
Szanowni Państwo,

Instytut Meteorologii i Gospodarki Wodnej - Państwowy Instytut Badawczy, poszukuje kandydatów do pracy na stanowisku administracyjnym - specjalista w Centrum Meteorologicznej Osłony Lotnictwa Cywilnego - Wydziale Organizacji Meteorologicznej Osłony Lotnictwa Cywilnego w Warszawie. Szczegółowe informacje znajdują się tutaj.

TAF dla lotnisk wojskowych 13:30 29.06.2017

TAF AMD EPCE 291208Z 2912/2921 12010KT 9999 SCT020 TEMPO 2912/2921
5000 SHRA BKN015CB PROB40 TEMPO 2913/2921 VRB30KT 2000 TSRA
BKN010CB =

TAF EPDA 291100Z 2912/2921 07010KT 9999 BKN040
TEMPO 2912/2921
07015G25KT 5000 SHRA BKN020CB
PROB40 TEMPO 2914/2918 VRB35KT 3000
TSRAGS BKN015CB =

TAF EPDE 291100Z 2912/2921 17008KT CAVOK PROB30 TEMPO 2917/2920
VRB15G30KT 5000 SHRA BKN027CB=

TAF EPIR 291100Z 2912/2921 12016KT 9999 SCT040 BKN200 PROB40 TEMPO
2912/292117015G30KT 5000 SHRA BKN030CB TEMPO 2913/2918
VRB20G40KT 2000 TSRAGR SCT009 BKN020CB =

TAF EPKS 291100Z 2912/2921 18015KT CAVOK
TEMPO 2912/2918 VRB15G30KT 3000 TSRA BKN015CB
BECMG 2918/2920 23017KT 9999 BKN020 =

TAF EPLY 291100Z 2912/2921 16012KT CAVOK TEMPO 2912/2921 5000 SHRA
BKN035CB PROB40 TEMPO 2914/2919 VRB16G30KT 2000 TSRA BKN020CB=

TAF EPMB 291100Z 2912/2921 12012KT CAVOK TEMPO 2912/2921 VRB20G40KT
2000 TSRA BKN020CB BECMG 2916/2918 16008KT=

TAF EPMI 291100Z 2912/2921 10010KT 9999 BKN030 TEMPO 2913/2921 5000
SHRA BKN020CB PROB40 TEMPO 2914/2921 VRB15G25KT 3000 TSRA
BKN010CB =

TAF EPMM 291100Z 2912/2921 16008KT CAVOK TEMPO 2912/2918 VRB20G30KT
6000 SHRA TSRA BKN030CB =

TAF EPOK 291100Z 2912/2921 09010KT 9999 BKN025 TEMPO 2912/2921 5000
SHRA BKN020CB PROB40 TEMPO 2912/2921 VRB18G30KT 2000 TSRAGR
BKN007 BKN010CB =

TAF EPPR 291100Z 2912/2921 12008KT 9999 BKN025 TEMPO 2914/2921 4000
SHRA BKN010 BKN015CB PROB40 TEMPO 2914/2921 2000 TSRA SCT010CB=

TAF EPPW 291100Z 2912/2921 16014KT CAVOK TEMPO 2912/2921 16018G28KT
5000 SHRA BKN030CB PROB40 TEMPO 2912/2918 VRB20G35KT 3000 TSRAGR
SCT008 BKN020CB=

TAF EPSN 291100Z 2912/2921 11008KT 9999 BKN027 TEMPO 2913/2921 3000
TSRA BKN010CB =

TAF EPTM 291100Z 2912/2921 15008KT CAVOK TEMPO 2912/2916 6000 SHRA
BKN040CB PROB40 TEMPO 2912/2916 VRB15G35KT
4000 TSRA BKN025CB=
Awiacja.imgw.pl jest pogodowym serwisem informacyjnym
Instytutu Meteorologii i Gospodarki Wodnej Państwowego Instytutu Badawczego.
Copyright IMGW PIB 2009-2011© Wszelkie prawa zastrzeżone.